KSPS/SPS METAR and TAF weather

Enter ICAO airport designator
Station Type Date Time Source
KSPS METAR 2019/06/17 14:25 UTC NOAA

KSPS 171425Z 27005KT 9SM SCT006 21/21 A2995 RMK AO2 T02110206


Station Type Date Time Source
KSPS Decoded METAR 2019/06/17 14:25 UTC NOAA

WICHITA FALLS SHEPPARD AFB, TX, United States (KSPS) 33-59N 98-30W 308M
Jun 17, 2019 - 10:25 AM EDT / 2019.06.17 1425 UTC
Wind: from the W (270 degrees) at 6 MPH (5 KT):0
Visibility: 9 mile(s):0
Sky conditions: partly cloudy
Temperature: 70.0 F (21.1 C)
Dew Point: 69.1 F (20.6 C)
Relative Humidity: 96%
Pressure (altimeter): 29.95 in. Hg (1014 hPa)
ob: KSPS 171425Z 27005KT 9SM SCT006 21/21 A2995 RMK AO2 T02110206
cycle: 14

Station Type Date Time Source
KSPS TAF 2019/06/17 14:52 UTC NOAA

TAF
AMD KSPS 171350Z 1714/1812 33008KT 3SM BR OVC003
FM171600 30007KT P6SM SCT004
FM171700 34008KT P6SM SCT035
FM180000 10006KT P6SM BKN250
FM180600 14006KT P6SM BKN250

Example: see airport list